createdAt,value
2023-03-04T00:00:46.489Z,74.20
2023-03-04T00:03:15.804Z,74.20
2023-03-04T00:05:44.212Z,74.30
2023-03-04T00:08:12.382Z,74.30
2023-03-04T00:10:40.543Z,74.20
2023-03-04T00:13:08.877Z,74.30
2023-03-04T00:15:37.115Z,74.30
2023-03-04T00:18:06.949Z,74.30
2023-03-04T00:20:35.043Z,74.30
2023-03-04T00:23:03.290Z,74.30
2023-03-04T00:25:31.388Z,74.40
2023-03-04T00:27:59.551Z,74.30
2023-03-04T00:30:28.207Z,74.30
2023-03-04T00:32:56.392Z,74.30
2023-03-04T00:35:25.918Z,74.30
2023-03-04T00:37:54.077Z,74.30
2023-03-04T00:40:22.256Z,74.30
2023-03-04T00:42:50.563Z,74.20
2023-03-04T00:45:18.896Z,74.20
2023-03-04T00:47:47.068Z,74.30
2023-03-04T00:50:15.190Z,74.10
2023-03-04T00:52:44.756Z,74.20
2023-03-04T00:55:13.116Z,74.20
2023-03-04T00:57:41.259Z,74.20
2023-03-04T01:00:10.701Z,74.20
2023-03-04T01:02:39.003Z,74.20
2023-03-04T01:05:08.468Z,74.30
2023-03-04T01:07:36.659Z,74.30
2023-03-04T01:10:07.374Z,74.30
2023-03-04T01:12:35.492Z,74.20
2023-03-04T01:15:03.712Z,74.30
2023-03-04T01:17:31.956Z,74.50
2023-03-04T01:20:00.136Z,74.40
2023-03-04T01:22:28.302Z,74.60
2023-03-04T01:24:56.427Z,74.50
2023-03-04T01:27:30.447Z,74.60
2023-03-04T01:29:59.674Z,74.40
2023-03-04T01:32:30.338Z,74.60
2023-03-04T01:34:59.286Z,74.60
2023-03-04T01:37:29.084Z,74.50
2023-03-04T01:40:09.085Z,74.60
2023-03-04T01:42:41.026Z,74.50
2023-03-04T01:45:14.729Z,74.60
2023-03-04T01:47:50.555Z,74.60
2023-03-04T01:50:27.191Z,74.70
2023-03-04T01:52:59.185Z,74.70
2023-03-04T01:55:33.942Z,74.80
2023-03-04T01:58:27.280Z,74.60
2023-03-04T02:00:58.398Z,74.80
2023-03-04T02:03:30.016Z,74.90
2023-03-04T02:06:00.171Z,74.80
2023-03-04T02:08:31.881Z,74.70
2023-03-04T02:11:00.115Z,74.70
2023-03-04T02:13:36.301Z,74.60
2023-03-04T02:16:06.266Z,74.60
2023-03-04T02:18:51.947Z,74.70
2023-03-04T02:21:26.977Z,74.60
2023-03-04T02:24:07.704Z,74.60
2023-03-04T02:26:58.414Z,74.80
2023-03-04T02:29:29.451Z,74.90
2023-03-04T02:31:59.243Z,74.80
2023-03-04T02:34:33.903Z,74.80
2023-03-04T02:37:08.179Z,74.90
2023-03-04T02:39:46.288Z,74.90
2023-03-04T02:42:26.281Z,74.90
2023-03-04T02:45:04.350Z,75.00
2023-03-04T02:47:39.913Z,75.00
2023-03-04T02:50:10.817Z,75.00
2023-03-04T02:52:40.722Z,75.00
2023-03-04T02:55:09.599Z,75.00
2023-03-04T02:57:39.138Z,75.00
2023-03-04T03:00:11.237Z,75.00
2023-03-04T03:02:40.463Z,75.00
2023-03-04T03:05:10.066Z,75.00
2023-03-04T03:07:39.790Z,75.00
2023-03-04T03:10:11.264Z,74.90
2023-03-04T03:12:56.599Z,75.00
2023-03-04T03:15:24.788Z,75.00
2023-03-04T03:17:59.687Z,74.90
2023-03-04T03:20:35.020Z,74.90
2023-03-04T03:25:50.075Z,75.00
2023-03-04T03:28:20.666Z,74.90
2023-03-04T03:30:50.008Z,74.80
2023-03-04T03:33:22.281Z,75.00
2023-03-04T03:35:52.363Z,74.90
2023-03-04T03:38:29.063Z,74.90
2023-03-04T03:40:59.789Z,75.00
2023-03-04T03:43:34.017Z,74.90
2023-03-04T03:46:02.208Z,75.10
2023-03-04T03:48:34.141Z,75.10
2023-03-04T03:51:02.637Z,75.10
2023-03-04T03:53:31.133Z,75.20
2023-03-04T03:56:09.106Z,75.10
2023-03-04T03:58:56.374Z,75.10
2023-03-04T04:01:26.213Z,75.20
2023-03-04T04:06:39.940Z,75.40
2023-03-04T04:09:10.427Z,75.40
2023-03-04T04:11:47.366Z,75.40
2023-03-04T04:14:18.119Z,75.50
2023-03-04T04:16:49.372Z,75.50
2023-03-04T04:19:25.213Z,75.60
2023-03-04T04:21:53.315Z,75.60
2023-03-04T04:24:25.382Z,75.60
2023-03-04T04:26:55.850Z,75.60
2023-03-04T04:29:30.013Z,75.70
2023-03-04T04:31:59.285Z,75.70
2023-03-04T04:34:39.830Z,75.70
2023-03-04T04:37:09.797Z,75.60
2023-03-04T04:39:40.459Z,75.70
2023-03-04T04:42:12.125Z,75.70
2023-03-04T04:44:44.342Z,75.70
2023-03-04T04:47:14.931Z,75.60
2023-03-04T04:49:43.356Z,75.60
2023-03-04T04:52:14.074Z,75.60
2023-03-04T04:54:45.353Z,75.50
2023-03-04T04:57:13.552Z,75.50
2023-03-04T04:59:45.710Z,75.60
2023-03-04T05:02:15.835Z,75.50
2023-03-04T05:04:45.364Z,75.60
2023-03-04T05:07:13.587Z,75.70
2023-03-04T05:09:43.220Z,75.70
2023-03-04T05:12:12.795Z,75.70
2023-03-04T05:14:43.882Z,75.80
2023-03-04T05:17:20.179Z,75.80
2023-03-04T05:19:52.354Z,75.80
2023-03-04T05:22:21.252Z,75.90
2023-03-04T05:27:48.369Z,75.90
2023-03-04T05:30:22.472Z,75.80
2023-03-04T05:32:53.997Z,75.80
2023-03-04T05:35:28.498Z,75.70
2023-03-04T05:38:00.921Z,75.80
2023-03-04T05:40:31.610Z,75.70
2023-03-04T05:42:59.897Z,75.70
2023-03-04T05:45:47.569Z,75.70
2023-03-04T05:48:16.259Z,75.70
2023-03-04T05:50:50.068Z,75.70
2023-03-04T05:53:19.665Z,75.70
2023-03-04T05:55:50.880Z,75.70
2023-03-04T05:58:34.063Z,75.70
2023-03-04T06:01:07.898Z,75.60
2023-03-04T06:03:36.575Z,75.50
2023-03-04T06:06:05.676Z,75.50
2023-03-04T06:08:34.429Z,75.60
2023-03-04T06:11:05.207Z,75.60
2023-03-04T06:13:48.607Z,75.70
2023-03-04T06:16:21.393Z,75.80
2023-03-04T06:18:52.443Z,75.90
2023-03-04T06:21:20.677Z,75.90
2023-03-04T06:23:50.529Z,75.90
2023-03-04T06:26:20.143Z,76.00
2023-03-04T06:28:51.576Z,76.00
2023-03-04T06:31:22.739Z,76.00
2023-03-04T06:33:50.933Z,76.00
2023-03-04T06:36:20.221Z,75.90
2023-03-04T06:38:58.128Z,76.10
2023-03-04T06:41:26.303Z,76.00
2023-03-04T06:43:56.901Z,76.00
2023-03-04T06:46:30.459Z,76.00
2023-03-04T06:49:01.119Z,76.00
2023-03-04T06:51:30.481Z,75.90
2023-03-04T06:54:01.089Z,76.00
2023-03-04T06:56:33.037Z,76.00
2023-03-04T06:59:02.410Z,76.00
2023-03-04T07:01:35.837Z,76.00
2023-03-04T07:04:06.554Z,76.00
2023-03-04T07:06:38.194Z,75.90
2023-03-04T07:09:09.490Z,75.90
2023-03-04T07:11:37.620Z,75.90
2023-03-04T07:14:09.816Z,75.80
2023-03-04T07:16:42.385Z,75.80
2023-03-04T07:19:12.791Z,75.80
2023-03-04T07:21:41.285Z,75.70
2023-03-04T07:24:10.685Z,75.70
2023-03-04T07:26:41.304Z,75.60
2023-03-04T07:29:11.088Z,75.50
2023-03-04T07:31:42.117Z,75.40
2023-03-04T07:34:15.055Z,75.40
2023-03-04T07:36:43.725Z,75.30
2023-03-04T07:39:14.190Z,75.30
2023-03-04T07:41:42.853Z,75.50
2023-03-04T07:44:13.470Z,75.40
2023-03-04T07:46:48.120Z,75.60
2023-03-04T07:49:16.369Z,75.70
2023-03-04T07:51:46.959Z,75.80
2023-03-04T07:54:15.144Z,75.80
2023-03-04T07:56:47.030Z,76.20
2023-03-04T07:59:16.520Z,76.00
2023-03-04T08:01:47.136Z,76.10
2023-03-04T08:04:18.512Z,76.50
2023-03-04T08:06:48.824Z,76.40
2023-03-04T08:09:19.393Z,76.50
2023-03-04T08:11:51.007Z,76.50
2023-03-04T08:14:21.709Z,76.70
2023-03-04T08:16:58.898Z,76.70
2023-03-04T08:19:27.891Z,76.50
2023-03-04T08:21:58.404Z,76.70
2023-03-04T08:24:30.928Z,76.60
2023-03-04T08:27:00.271Z,76.50
2023-03-04T08:29:30.956Z,77.20
2023-03-04T08:32:09.820Z,77.20
2023-03-04T08:34:43.936Z,77.50
2023-03-04T08:37:13.272Z,77.60
2023-03-04T08:39:42.461Z,77.40
2023-03-04T08:42:10.915Z,77.30
2023-03-04T08:44:42.581Z,77.50
2023-03-04T08:47:12.415Z,77.30
2023-03-04T08:49:43.079Z,77.20
2023-03-04T08:52:13.541Z,77.60
2023-03-04T08:54:46.775Z,77.50
2023-03-04T08:57:17.752Z,77.50
2023-03-04T08:59:47.308Z,77.00
2023-03-04T09:02:21.872Z,77.40
2023-03-04T09:04:51.401Z,77.00
2023-03-04T09:07:22.978Z,77.30
2023-03-04T09:09:52.197Z,77.00
2023-03-04T09:12:20.636Z,76.90
2023-03-04T09:15:01.118Z,76.90
2023-03-04T09:17:38.167Z,76.90
2023-03-04T09:20:09.259Z,76.60
2023-03-04T09:22:39.453Z,76.30
2023-03-04T09:25:12.730Z,76.30
2023-03-04T09:27:43.713Z,75.90
2023-03-04T09:30:13.133Z,76.20
2023-03-04T09:32:52.193Z,76.00
2023-03-04T09:35:23.193Z,75.80
2023-03-04T09:37:55.412Z,75.30
2023-03-04T09:40:31.734Z,75.80
2023-03-04T09:43:03.583Z,75.60
2023-03-04T09:45:41.721Z,75.00
2023-03-04T09:48:16.866Z,75.10
2023-03-04T09:50:58.469Z,75.30
2023-03-04T09:53:34.548Z,75.00
2023-03-04T09:56:04.558Z,74.30
2023-03-04T09:58:46.024Z,74.30
2023-03-04T10:01:22.751Z,74.10
2023-03-04T10:03:56.190Z,73.70
2023-03-04T10:06:25.691Z,73.80
2023-03-04T10:09:00.695Z,73.70
2023-03-04T10:11:36.240Z,73.30
2023-03-04T10:14:32.540Z,73.60
2023-03-04T10:17:07.463Z,73.70
2023-03-04T10:19:54.988Z,74.10
2023-03-04T10:22:32.136Z,73.20
2023-03-04T10:25:19.327Z,74.00
2023-03-04T10:27:53.167Z,74.10
2023-03-04T10:30:34.432Z,74.30
2023-03-04T10:33:05.107Z,73.10
2023-03-04T10:35:49.564Z,73.70
2023-03-04T10:38:24.419Z,73.80
2023-03-04T10:40:54.058Z,74.20
2023-03-04T10:43:25.232Z,73.90
2023-03-04T10:46:03.667Z,74.10
2023-03-04T10:48:37.720Z,73.90
2023-03-04T10:51:45.456Z,73.80
2023-03-04T10:54:26.014Z,73.70
2023-03-04T10:57:03.855Z,73.60
2023-03-04T10:59:36.647Z,73.30
2023-03-04T11:05:19.334Z,73.10
2023-03-04T11:07:57.283Z,73.40
2023-03-04T11:10:29.802Z,73.90
2023-03-04T11:13:01.764Z,73.60
2023-03-04T11:15:32.576Z,73.20
2023-03-04T11:18:04.018Z,73.80
2023-03-04T11:20:34.681Z,73.60
2023-03-04T11:23:07.752Z,73.10
2023-03-04T11:25:37.812Z,72.50
2023-03-04T11:28:14.330Z,73.30
2023-03-04T11:30:46.003Z,73.00
2023-03-04T11:33:22.138Z,73.30
2023-03-04T11:35:59.426Z,73.40
2023-03-04T11:38:36.176Z,73.10
2023-03-04T11:41:10.611Z,72.70
2023-03-04T11:43:42.890Z,72.10
2023-03-04T11:46:38.387Z,72.50
2023-03-04T11:49:25.311Z,72.30
2023-03-04T11:52:04.650Z,72.10
2023-03-04T11:54:38.853Z,71.70
2023-03-04T11:57:14.294Z,72.00
2023-03-04T12:00:00.020Z,72.10
2023-03-04T12:02:37.839Z,71.80
2023-03-04T12:05:36.345Z,71.60
2023-03-04T12:08:23.205Z,71.30
2023-03-04T12:11:01.707Z,70.90
2023-03-04T12:14:09.504Z,70.70
2023-03-04T12:17:04.430Z,70.80
2023-03-04T12:19:46.850Z,70.10
2023-03-04T12:22:41.005Z,70.30
2023-03-04T12:25:26.645Z,69.50
2023-03-04T12:28:04.278Z,69.60
2023-03-04T12:30:47.654Z,69.50
2023-03-04T12:33:24.786Z,70.00
2023-03-04T12:35:59.207Z,69.50
2023-03-04T12:38:37.763Z,68.60
2023-03-04T12:41:22.487Z,68.10
2023-03-04T12:44:00.085Z,68.20
2023-03-04T12:46:38.596Z,68.60
2023-03-04T12:49:36.266Z,68.50
2023-03-04T12:52:11.624Z,68.20
2023-03-04T12:54:42.383Z,67.30
2023-03-04T12:57:14.465Z,67.70
2023-03-04T12:59:50.722Z,66.30
2023-03-04T13:02:54.040Z,66.80
2023-03-04T13:05:34.615Z,66.10
2023-03-04T13:08:12.441Z,65.70
2023-03-04T13:10:40.565Z,65.20
2023-03-04T13:13:35.746Z,63.90
2023-03-04T13:16:07.276Z,65.70
2023-03-04T13:18:39.444Z,65.10
2023-03-04T13:21:19.132Z,64.80
2023-03-04T13:23:47.314Z,64.60
2023-03-04T13:26:30.155Z,62.40
2023-03-04T13:29:27.169Z,64.20
2023-03-04T13:32:05.159Z,63.60
2023-03-04T13:34:48.783Z,63.10
2023-03-04T13:37:30.082Z,62.70
2023-03-04T13:40:33.419Z,62.40
2023-03-04T13:43:26.702Z,62.80
2023-03-04T13:45:55.105Z,61.70
2023-03-04T13:48:37.394Z,61.70
2023-03-04T13:51:06.098Z,61.70
2023-03-04T13:53:50.073Z,61.30
2023-03-04T13:56:29.839Z,61.00
2023-03-04T13:59:21.664Z,60.60
2023-03-04T14:02:00.088Z,60.20
2023-03-04T14:04:33.514Z,59.40
2023-03-04T14:07:04.142Z,59.10
2023-03-04T14:09:33.954Z,58.20
2023-03-04T14:12:05.749Z,58.60
2023-03-04T14:14:41.813Z,57.60
2023-03-04T14:17:20.186Z,57.90
2023-03-04T14:19:53.601Z,57.20
2023-03-04T14:22:25.592Z,56.90
2023-03-04T14:25:04.731Z,56.70
2023-03-04T14:27:36.126Z,56.30
2023-03-04T14:30:06.791Z,55.80
2023-03-04T14:32:35.129Z,55.40
2023-03-04T14:35:07.586Z,55.00
2023-03-04T14:37:43.591Z,53.60
2023-03-04T14:40:21.468Z,53.40
2023-03-04T14:42:54.737Z,53.00
2023-03-04T14:45:24.975Z,51.30
2023-03-04T14:47:56.167Z,52.60
2023-03-04T14:50:25.756Z,51.60
2023-03-04T14:53:14.290Z,52.20
2023-03-04T14:55:56.537Z,52.30
2023-03-04T14:58:26.945Z,50.70
2023-03-04T15:01:09.757Z,51.50
2023-03-04T15:03:38.201Z,51.80
2023-03-04T15:06:19.477Z,50.80
2023-03-04T15:08:55.378Z,50.90
2023-03-04T15:11:25.671Z,50.70
2023-03-04T15:13:56.590Z,50.60
2023-03-04T15:16:27.727Z,50.90
2023-03-04T15:19:02.137Z,51.00
2023-03-04T15:21:37.093Z,50.70
2023-03-04T15:24:06.525Z,50.50
2023-03-04T15:26:39.043Z,50.00
2023-03-04T15:29:15.101Z,50.10
2023-03-04T15:31:44.798Z,49.80
2023-03-04T15:34:14.372Z,50.10
2023-03-04T15:36:46.657Z,49.90
2023-03-04T15:39:17.542Z,49.70
2023-03-04T15:41:46.617Z,49.90
2023-03-04T15:44:15.229Z,49.60
2023-03-04T15:46:43.434Z,50.00
2023-03-04T15:49:11.909Z,50.00
2023-03-04T15:51:40.166Z,49.80
2023-03-04T15:54:14.901Z,49.60
2023-03-04T15:56:43.225Z,49.70
2023-03-04T15:59:13.722Z,50.10
2023-03-04T16:01:42.208Z,50.50
2023-03-04T16:04:14.389Z,51.00
2023-03-04T16:06:43.451Z,51.40
2023-03-04T16:09:16.805Z,51.80
2023-03-04T16:11:47.677Z,51.90
2023-03-04T16:14:16.919Z,52.40
2023-03-04T16:16:46.912Z,52.70
2023-03-04T16:19:15.583Z,52.90
2023-03-04T16:21:43.805Z,53.00
2023-03-04T16:24:18.845Z,53.30
2023-03-04T16:26:47.171Z,53.50
2023-03-04T16:29:16.399Z,53.60
2023-03-04T16:31:44.715Z,53.80
2023-03-04T16:34:12.821Z,54.10
2023-03-04T16:36:41.092Z,54.30
2023-03-04T16:39:16.510Z,54.60
2023-03-04T16:41:46.156Z,54.80
2023-03-04T16:44:14.884Z,55.00
2023-03-04T16:46:43.394Z,55.20
2023-03-04T16:49:11.655Z,55.40
2023-03-04T16:51:43.684Z,55.50
2023-03-04T16:54:17.874Z,55.70
2023-03-04T16:56:47.395Z,55.90
2023-03-04T16:59:17.531Z,56.00
2023-03-04T17:01:46.106Z,56.20
2023-03-04T17:04:14.420Z,56.20
2023-03-04T17:06:42.738Z,56.50
2023-03-04T17:09:11.121Z,56.60
2023-03-04T17:11:39.450Z,56.80
2023-03-04T17:14:08.938Z,56.90
2023-03-04T17:16:37.179Z,57.00
2023-03-04T17:19:05.357Z,57.20
2023-03-04T17:21:33.609Z,57.30
2023-03-04T17:24:03.191Z,57.50
2023-03-04T17:26:32.286Z,57.60
2023-03-04T17:29:00.445Z,57.70
2023-03-04T17:31:29.979Z,57.80
2023-03-04T17:33:58.230Z,58.00
2023-03-04T17:36:26.393Z,58.20
2023-03-04T17:38:54.536Z,58.30
2023-03-04T17:41:24.895Z,58.30
2023-03-04T17:43:54.638Z,58.40
2023-03-04T17:46:24.313Z,58.60
2023-03-04T17:48:56.245Z,58.70
2023-03-04T17:51:31.391Z,58.80
2023-03-04T17:54:01.327Z,58.90
2023-03-04T17:56:33.402Z,59.00
2023-03-04T17:59:05.767Z,59.10
2023-03-04T18:01:33.911Z,59.20
2023-03-04T18:04:03.697Z,59.40
2023-03-04T18:06:31.895Z,59.60
2023-03-04T18:09:00.107Z,59.70
2023-03-04T18:11:29.497Z,59.70
2023-03-04T18:13:58.217Z,59.90
2023-03-04T18:16:28.906Z,59.90
2023-03-04T18:18:58.799Z,60.10
2023-03-04T18:21:29.416Z,60.20
2023-03-04T18:23:58.687Z,60.50
2023-03-04T18:26:27.348Z,60.80
2023-03-04T18:28:56.745Z,61.20
2023-03-04T18:31:27.269Z,61.30
2023-03-04T18:33:56.792Z,61.50
2023-03-04T18:36:24.998Z,61.60
2023-03-04T18:38:55.062Z,61.80
2023-03-04T18:41:23.973Z,62.00
2023-03-04T18:43:53.454Z,62.20
2023-03-04T18:46:35.351Z,62.20
2023-03-04T18:49:08.755Z,62.30
2023-03-04T18:51:39.827Z,62.40
2023-03-04T18:54:11.833Z,62.50
2023-03-04T18:56:43.138Z,62.70
2023-03-04T18:59:18.910Z,62.80
2023-03-04T19:01:50.655Z,63.00
2023-03-04T19:04:20.923Z,63.10
2023-03-04T19:06:51.252Z,63.30
2023-03-04T19:09:24.463Z,63.30
2023-03-04T19:11:52.620Z,63.50
2023-03-04T19:14:20.766Z,63.40
2023-03-04T19:16:48.957Z,63.70
2023-03-04T19:19:17.072Z,63.80
2023-03-04T19:21:45.255Z,63.90
2023-03-04T19:24:13.440Z,63.90
2023-03-04T19:26:43.017Z,64.00
2023-03-04T19:29:11.180Z,64.00
2023-03-04T19:31:41.503Z,64.10
2023-03-04T19:34:09.984Z,63.90
2023-03-04T19:36:38.384Z,64.10
2023-03-04T19:39:06.761Z,64.10
2023-03-04T19:41:34.918Z,64.20
2023-03-04T19:44:04.544Z,64.20
2023-03-04T19:46:32.711Z,64.30
2023-03-04T19:49:02.555Z,64.30
2023-03-04T19:51:32.758Z,64.30
2023-03-04T19:54:01.861Z,64.30
2023-03-04T19:56:30.287Z,64.30
2023-03-04T19:58:58.825Z,64.50
2023-03-04T20:01:30.357Z,64.50
2023-03-04T20:04:00.070Z,64.70
2023-03-04T20:06:28.901Z,64.60
2023-03-04T20:08:59.163Z,64.70
2023-03-04T20:11:28.448Z,65.00
2023-03-04T20:13:58.464Z,64.90
2023-03-04T20:16:28.827Z,65.00
2023-03-04T20:18:58.130Z,64.90
2023-03-04T20:21:26.633Z,64.90
2023-03-04T20:23:55.169Z,64.90
2023-03-04T20:26:23.758Z,64.90
2023-03-04T20:28:52.333Z,65.00
2023-03-04T20:31:22.646Z,65.00
2023-03-04T20:33:53.384Z,65.00
2023-03-04T20:36:23.741Z,65.00
2023-03-04T20:39:00.670Z,65.00
2023-03-04T20:41:30.680Z,65.10
2023-03-04T20:43:58.895Z,65.10
2023-03-04T20:46:33.239Z,65.10
2023-03-04T20:49:06.748Z,65.10
2023-03-04T20:51:35.529Z,65.20
2023-03-04T20:54:04.199Z,65.20
2023-03-04T20:56:33.528Z,65.30
2023-03-04T20:59:03.829Z,65.30
2023-03-04T21:01:34.234Z,65.30
2023-03-04T21:04:09.020Z,65.50
2023-03-04T21:06:40.655Z,65.50
2023-03-04T21:09:12.836Z,65.60
2023-03-04T21:11:42.907Z,65.90
2023-03-04T21:14:15.232Z,65.80
2023-03-04T21:16:43.926Z,65.80
2023-03-04T21:19:17.597Z,65.90
2023-03-04T21:21:46.211Z,65.80
2023-03-04T21:24:16.509Z,66.00
2023-03-04T21:26:47.572Z,66.00
2023-03-04T21:29:16.371Z,66.10
2023-03-04T21:31:46.404Z,66.30
2023-03-04T21:34:19.180Z,66.40
2023-03-04T21:36:47.587Z,66.40
2023-03-04T21:39:17.769Z,66.60
2023-03-04T21:41:46.295Z,66.70
2023-03-04T21:44:28.113Z,66.70
2023-03-04T21:46:57.178Z,66.70
2023-03-04T21:49:26.869Z,66.70
2023-03-04T21:51:55.087Z,66.70
2023-03-04T21:54:23.302Z,66.80
2023-03-04T21:56:51.475Z,67.10
2023-03-04T21:59:19.585Z,67.20
2023-03-04T22:01:47.930Z,67.40
2023-03-04T22:04:16.183Z,67.40
2023-03-04T22:06:45.680Z,67.60
2023-03-04T22:09:14.605Z,67.80
2023-03-04T22:11:42.857Z,67.90
2023-03-04T22:14:12.071Z,67.90
2023-03-04T22:16:54.184Z,67.90
2023-03-04T22:19:23.277Z,68.00
2023-03-04T22:21:53.426Z,67.80
2023-03-04T22:24:21.860Z,68.10
2023-03-04T22:26:50.331Z,68.30
2023-03-04T22:29:18.499Z,68.30
2023-03-04T22:31:47.190Z,68.20
2023-03-04T22:34:16.684Z,68.30
2023-03-04T22:36:46.641Z,68.30
2023-03-04T22:39:19.327Z,68.30
2023-03-04T22:41:47.931Z,68.30
2023-03-04T22:44:16.135Z,68.30
2023-03-04T22:46:44.810Z,68.40
2023-03-04T22:49:14.785Z,68.40
2023-03-04T22:51:44.667Z,68.30
2023-03-04T22:54:13.859Z,68.40
2023-03-04T22:56:43.381Z,68.50
2023-03-04T22:59:11.933Z,68.30
2023-03-04T23:01:40.123Z,68.50
2023-03-04T23:04:08.390Z,68.70
2023-03-04T23:06:37.719Z,68.60
2023-03-04T23:09:06.830Z,68.60
2023-03-04T23:11:36.968Z,68.60
2023-03-04T23:14:08.071Z,68.70
2023-03-04T23:16:39.278Z,68.70
2023-03-04T23:19:08.068Z,68.90
2023-03-04T23:21:36.814Z,68.80
2023-03-04T23:24:07.658Z,68.80
2023-03-04T23:26:38.739Z,68.80
2023-03-04T23:29:10.396Z,68.80
2023-03-04T23:31:39.736Z,68.70
2023-03-04T23:34:08.060Z,68.70
2023-03-04T23:36:38.129Z,68.90
2023-03-04T23:39:06.970Z,69.00
2023-03-04T23:41:35.814Z,68.70
2023-03-04T23:44:04.142Z,68.80
2023-03-04T23:46:34.459Z,68.80
2023-03-04T23:49:02.748Z,68.60
2023-03-04T23:51:31.673Z,68.50
2023-03-04T23:54:00.237Z,68.60
2023-03-04T23:56:30.337Z,68.70
2023-03-04T23:58:59.715Z,68.70
